Time;durP1;ratioP1;P1;durP2;ratioP2;P2;SDS_P1;SDS_P2;PMS_P1;PMS_P2;Temp;Humidity;BMP_temperature;BMP_pressure;BME280_temperature;BME280_humidity;BME280_pressure;Samples;Min_cycle;Max_cycle;Signal;HPM_P1;HPM_P2
2023/05/28 00:02:15;;;;;;;8.73;3.95;;;17.40;55.50;;;;;;5032636;28;20159;-69
2023/05/28 00:04:42;;;;;;;12.68;5.22;;;17.50;55.50;;;;;;5030586;28;20065;-69
2023/05/28 00:07:10;;;;;;;11.00;5.60;;;17.50;55.50;;;;;;5015418;28;20048;-68
2023/05/28 00:09:41;;;;;;;12.55;4.70;;;17.40;55.60;;;;;;5027454;28;20029;-69
2023/05/28 00:12:07;;;;;;;11.77;4.70;;;17.40;55.80;;;;;;5032622;28;20144;-69
2023/05/28 00:14:36;;;;;;;16.42;5.53;;;17.40;56.10;;;;;;5030332;28;20021;-69
2023/05/28 00:17:02;;;;;;;13.05;5.53;;;17.30;56.10;;;;;;5033769;28;20053;-69
2023/05/28 00:19:27;;;;;;;12.88;6.07;;;17.30;56.30;;;;;;5029445;28;20029;-68
2023/05/28 00:21:53;;;;;;;16.25;5.35;;;17.30;56.50;;;;;;5026693;28;20083;-69
2023/05/28 00:24:19;;;;;;;11.35;5.30;;;17.20;56.60;;;;;;5030206;28;20367;-69
2023/05/28 00:26:45;;;;;;;14.75;5.38;;;17.20;56.80;;;;;;5032625;28;20080;-69
2023/05/28 00:29:10;;;;;;;14.18;5.60;;;17.20;57.10;;;;;;5014147;28;20032;-69
2023/05/28 00:31:36;;;;;;;15.45;5.30;;;17.20;57.40;;;;;;5047066;28;20021;-69
2023/05/28 00:34:02;;;;;;;13.23;5.07;;;17.10;57.50;;;;;;5032762;28;20048;-69
2023/05/28 00:36:28;;;;;;;11.90;5.03;;;17.10;57.80;;;;;;5030499;28;20493;-69
2023/05/28 00:38:54;;;;;;;15.20;5.50;;;17.10;58.10;;;;;;5027086;28;20493;-68
2023/05/28 00:41:23;;;;;;;13.95;5.80;;;17.10;58.20;;;;;;5022929;28;20455;-68
2023/05/28 00:43:49;;;;;;;12.88;5.68;;;17.10;58.40;;;;;;5028621;28;20029;-69
2023/05/28 00:46:21;;;;;;;14.90;5.32;;;17.10;58.50;;;;;;5011424;28;20116;-69
2023/05/28 00:48:48;;;;;;;10.50;4.88;;;17.00;58.70;;;;;;5021076;28;20041;-69
2023/05/28 00:51:14;;;;;;;12.02;5.15;;;17.00;58.80;;;;;;5018600;28;20136;-69
2023/05/28 00:53:41;;;;;;;11.48;5.10;;;17.00;59.00;;;;;;5035671;28;20030;-69
2023/05/28 00:56:10;;;;;;;12.68;5.72;;;17.00;59.20;;;;;;5033446;28;20482;-69
2023/05/28 00:58:39;;;;;;;10.40;4.78;;;17.00;59.30;;;;;;5036204;28;20514;-68
2023/05/28 01:01:06;;;;;;;14.40;5.45;;;17.00;59.30;;;;;;5013019;28;20026;-69
2023/05/28 01:03:37;;;;;;;15.55;5.35;;;17.00;59.50;;;;;;5033806;28;20112;-69
2023/05/28 01:06:11;;;;;;;10.95;4.65;;;17.00;59.60;;;;;;5031167;28;20025;-69
2023/05/28 01:08:37;;;;;;;15.48;5.45;;;16.90;59.70;;;;;;5035988;28;20033;-69
2023/05/28 01:11:10;;;;;;;14.70;5.50;;;16.90;59.90;;;;;;5023492;28;20095;-69
2023/05/28 01:13:37;;;;;;;12.57;5.07;;;16.90;60.10;;;;;;5036404;28;20026;-69
2023/05/28 01:16:03;;;;;;;15.82;6.18;;;16.90;60.50;;;;;;5015073;28;20026;-69
2023/05/28 01:18:31;;;;;;;13.95;5.40;;;16.90;60.80;;;;;;5018725;28;20025;-69
2023/05/28 01:21:01;;;;;;;11.75;5.32;;;16.90;61.10;;;;;;5033446;28;20025;-68
2023/05/28 01:23:28;;;;;;;15.65;6.00;;;16.80;61.40;;;;;;5036004;28;20071;-69
2023/05/28 01:25:59;;;;;;;12.95;5.53;;;16.80;61.50;;;;;;5012152;28;20140;-69
2023/05/28 01:28:25;;;;;;;13.93;5.68;;;16.80;61.70;;;;;;5016400;28;20087;-69
2023/05/28 01:30:52;;;;;;;12.00;5.57;;;16.80;62.50;;;;;;5018303;28;20438;-69
2023/05/28 01:33:20;;;;;;;16.08;5.53;;;16.80;62.00;;;;;;5033413;28;20026;-69
2023/05/28 01:35:46;;;;;;;16.38;5.32;;;16.80;62.10;;;;;;5010985;28;20018;-69
2023/05/28 01:38:15;;;;;;;12.70;5.43;;;16.80;62.30;;;;;;5032125;28;20481;-69
2023/05/28 01:40:44;;;;;;;11.82;5.43;;;16.70;63.10;;;;;;5035565;28;20359;-69
2023/05/28 01:43:10;;;;;;;13.95;5.88;;;16.70;62.60;;;;;;5023854;28;20109;-69
2023/05/28 01:45:38;;;;;;;16.08;6.32;;;16.70;62.80;;;;;;5029740;28;20087;-69
2023/05/28 01:48:05;;;;;;;14.35;5.30;;;16.70;62.90;;;;;;5028066;28;20096;-69
2023/05/28 01:50:32;;;;;;;13.82;5.53;;;16.60;63.00;;;;;;5034237;28;20140;-69
2023/05/28 01:52:59;;;;;;;13.98;5.90;;;16.60;63.00;;;;;;5031075;28;20370;-69
2023/05/28 01:55:26;;;;;;;16.25;5.63;;;16.60;63.20;;;;;;5018528;28;20018;-69
2023/05/28 01:57:51;;;;;;;12.85;5.68;;;16.60;63.20;;;;;;5021419;28;20025;-69
2023/05/28 02:00:18;;;;;;;14.25;5.70;;;16.60;63.20;;;;;;5030797;28;20492;-69
2023/05/28 02:02:43;;;;;;;15.32;6.32;;;16.50;63.20;;;;;;5034593;28;20033;-69
2023/05/28 02:05:11;;;;;;;15.05;5.68;;;16.50;63.50;;;;;;5013584;28;20026;-69
2023/05/28 02:07:37;;;;;;;13.80;5.80;;;16.50;63.30;;;;;;5033546;28;20472;-69
2023/05/28 02:10:03;;;;;;;13.43;6.03;;;16.50;63.30;;;;;;5029330;28;20025;-69
2023/05/28 02:12:29;;;;;;;12.88;5.50;;;16.50;63.40;;;;;;5032695;28;20063;-69
2023/05/28 02:14:56;;;;;;;11.43;5.38;;;16.40;63.40;;;;;;5030429;28;20025;-69
2023/05/28 02:17:21;;;;;;;11.07;5.57;;;16.40;63.40;;;;;;5034828;28;20032;-68
2023/05/28 02:19:47;;;;;;;15.18;5.97;;;16.40;63.50;;;;;;5026173;28;20029;-68
2023/05/28 02:22:13;;;;;;;14.00;5.60;;;16.40;63.60;;;;;;5032774;28;20143;-69
2023/05/28 02:24:39;;;;;;;15.55;5.72;;;16.40;63.70;;;;;;5030923;28;20030;-69
2023/05/28 02:27:09;;;;;;;13.52;5.78;;;16.30;63.70;;;;;;5024638;28;20033;-69
2023/05/28 02:29:35;;;;;;;13.48;5.88;;;16.30;63.80;;;;;;5023560;28;20037;-69
2023/05/28 02:32:03;;;;;;;11.60;5.40;;;16.30;63.90;;;;;;5031760;28;20305;-69
2023/05/28 02:34:29;;;;;;;16.20;5.47;;;16.30;64.00;;;;;;5029026;28;20389;-69
2023/05/28 02:36:56;;;;;;;16.27;5.97;;;16.20;63.90;;;;;;5015731;28;20332;-68
2023/05/28 02:39:24;;;;;;;15.52;5.80;;;16.20;64.00;;;;;;5025324;28;20047;-68
2023/05/28 02:41:50;;;;;;;13.50;6.13;;;16.20;64.10;;;;;;5032140;28;20036;-69
2023/05/28 02:44:16;;;;;;;14.88;6.47;;;16.20;64.10;;;;;;5015374;28;20366;-69
2023/05/28 02:46:42;;;;;;;13.25;6.30;;;16.20;64.10;;;;;;5032580;28;20047;-68
2023/05/28 02:49:07;;;;;;;12.93;5.35;;;16.10;64.10;;;;;;5031174;28;20021;-69
2023/05/28 02:51:34;;;;;;;14.38;5.40;;;16.10;64.10;;;;;;5029848;28;20049;-69
2023/05/28 02:54:16;;;;;;;12.32;6.00;;;16.10;64.20;;;;;;5028243;28;20041;-68
2023/05/28 02:56:42;;;;;;;12.43;6.43;;;16.10;65.00;;;;;;5032776;28;20022;-69
2023/05/28 02:59:08;;;;;;;12.70;6.38;;;16.10;64.40;;;;;;5014369;28;20090;-69
2023/05/28 03:01:35;;;;;;;14.75;6.05;;;16.10;64.50;;;;;;5002783;28;20029;-69
2023/05/28 03:04:01;;;;;;;13.85;6.20;;;16.10;64.70;;;;;;5024038;28;20030;-69
2023/05/28 03:06:27;;;;;;;12.77;5.97;;;16.00;64.80;;;;;;5031858;28;20449;-69
2023/05/28 03:08:54;;;;;;;13.20;6.32;;;16.00;64.90;;;;;;5015052;28;20068;-69
2023/05/28 03:11:21;;;;;;;14.18;6.63;;;16.00;65.00;;;;;;5026758;28;20060;-69
2023/05/28 03:13:47;;;;;;;13.18;6.53;;;16.00;65.20;;;;;;5029975;28;20021;-69
2023/05/28 03:16:13;;;;;;;16.30;6.35;;;15.90;65.90;;;;;;5014645;28;20021;-69
2023/05/28 03:18:39;;;;;;;15.05;6.95;;;15.90;65.30;;;;;;5019766;28;20036;-69
2023/05/28 03:21:07;;;;;;;15.55;6.32;;;15.90;65.40;;;;;;5026850;28;20026;-69
2023/05/28 03:23:33;;;;;;;15.15;6.28;;;15.90;65.60;;;;;;5031458;28;20183;-69
2023/05/28 03:26:22;;;;;;;17.38;6.75;;;15.80;66.20;;;;;;5030291;28;20362;-69
2023/05/28 03:28:48;;;;;;;13.07;6.47;;;15.80;65.60;;;;;;5029406;28;20022;-68
2023/05/28 03:31:46;;;;;;;;;;;15.80;65.70;;;;;;5029364;28;20060;-69
2023/05/28 03:34:14;;;;;;;11.57;5.40;;;15.80;65.60;;;;;;5029886;28;19974;-69
2023/05/28 03:36:40;;;;;;;14.80;5.53;;;15.70;65.50;;;;;;5027481;28;20022;-69
2023/05/28 03:39:10;;;;;;;11.93;6.53;;;15.70;65.70;;;;;;5026945;28;20033;-68
2023/05/28 03:41:37;;;;;;;15.73;5.80;;;15.70;65.70;;;;;;5026049;28;20060;-69
2023/05/28 03:44:05;;;;;;;15.20;6.05;;;15.70;65.70;;;;;;5020870;28;20466;-69
2023/05/28 03:46:31;;;;;;;15.43;6.47;;;15.70;65.80;;;;;;5029101;28;20026;-69
2023/05/28 03:48:57;;;;;;;12.95;6.60;;;15.70;65.90;;;;;;5028191;28;20045;-69
2023/05/28 03:51:26;;;;;;;14.85;6.00;;;15.80;66.00;;;;;;5029198;28;20041;-69
2023/05/28 03:53:52;;;;;;;13.77;6.40;;;15.70;65.90;;;;;;5024121;28;20076;-69
2023/05/28 03:56:19;;;;;;;15.05;6.15;;;15.80;66.10;;;;;;5027818;28;20037;-69
2023/05/28 03:58:47;;;;;;;18.73;6.82;;;15.80;66.10;;;;;;5032275;28;20025;-69
2023/05/28 04:01:12;;;;;;;12.30;6.22;;;15.80;66.10;;;;;;5026893;28;20037;-69
2023/05/28 04:03:38;;;;;;;13.40;7.13;;;15.80;66.10;;;;;;5028011;28;20044;-69
2023/05/28 04:06:06;;;;;;;14.57;6.88;;;15.80;66.20;;;;;;5026678;28;20474;-69
2023/05/28 04:08:32;;;;;;;14.77;6.30;;;15.80;66.20;;;;;;5023371;28;20022;-68
2023/05/28 04:10:58;;;;;;;13.23;6.13;;;15.80;66.30;;;;;;5028770;28;20033;-68
2023/05/28 04:13:24;;;;;;;11.75;5.70;;;15.80;66.30;;;;;;5024869;28;20030;-68
2023/05/28 04:15:51;;;;;;;14.82;6.35;;;15.80;66.30;;;;;;5027276;28;20028;-68
2023/05/28 04:18:16;;;;;;;15.63;6.15;;;15.80;66.20;;;;;;5027317;28;20451;-69
2023/05/28 04:20:43;;;;;;;16.02;7.03;;;15.80;66.20;;;;;;5027291;28;20095;-68
2023/05/28 04:23:09;;;;;;;16.60;6.72;;;15.90;66.20;;;;;;5019489;28;20038;-69
2023/05/28 04:25:36;;;;;;;13.07;5.28;;;15.90;66.20;;;;;;5028786;28;20026;-68
2023/05/28 04:28:02;;;;;;;14.90;6.47;;;15.90;66.20;;;;;;5030026;28;20034;-68
2023/05/28 04:30:27;;;;;;;13.27;6.38;;;16.00;66.10;;;;;;5027474;28;20028;-69
2023/05/28 04:32:53;;;;;;;13.90;6.22;;;16.00;66.10;;;;;;5027525;28;20604;-69
2023/05/28 04:35:21;;;;;;;16.15;6.93;;;16.00;66.10;;;;;;5026735;28;20451;-69
2023/05/28 04:37:48;;;;;;;16.10;6.82;;;16.00;66.10;;;;;;5027061;28;20022;-69
2023/05/28 04:40:14;;;;;;;14.57;5.93;;;16.00;66.10;;;;;;5030796;28;20040;-68
2023/05/28 04:42:41;;;;;;;14.45;6.28;;;16.00;66.00;;;;;;5024815;28;20025;-69
2023/05/28 04:45:10;;;;;;;15.80;6.10;;;16.10;66.10;;;;;;5031033;28;20347;-69
2023/05/28 04:47:38;;;;;;;14.45;6.05;;;16.10;66.00;;;;;;5015664;28;20071;-69
2023/05/28 04:50:06;;;;;;;16.42;6.00;;;16.10;65.90;;;;;;5032241;28;20057;-69
2023/05/28 04:52:33;;;;;;;14.00;6.25;;;16.10;65.80;;;;;;5029036;28;20037;-69
2023/05/28 04:54:59;;;;;;;13.82;6.07;;;16.10;65.80;;;;;;5026264;28;20025;-69
2023/05/28 04:57:25;;;;;;;13.23;6.28;;;16.10;65.80;;;;;;5029819;28;20462;-69
2023/05/28 04:59:51;;;;;;;13.95;5.95;;;16.10;65.70;;;;;;5014891;28;20021;-68
2023/05/28 05:02:18;;;;;;;14.07;6.72;;;16.20;65.90;;;;;;5027691;28;20112;-69
2023/05/28 05:04:45;;;;;;;13.75;6.53;;;16.20;65.90;;;;;;5031586;28;20052;-70
2023/05/28 05:07:14;;;;;;;12.85;6.15;;;16.20;65.90;;;;;;5009823;28;20037;-69
2023/05/28 05:09:40;;;;;;;14.73;6.22;;;16.20;65.80;;;;;;5011001;28;20041;-69
2023/05/28 05:12:07;;;;;;;13.13;5.90;;;16.20;65.80;;;;;;5029356;28;20021;-69
2023/05/28 05:14:34;;;;;;;14.07;5.75;;;16.20;65.90;;;;;;5015146;28;20100;-69
2023/05/28 05:17:00;;;;;;;15.25;7.68;;;16.30;65.80;;;;;;5028365;28;20117;-69
2023/05/28 05:19:27;;;;;;;12.75;6.28;;;16.40;65.70;;;;;;5011479;28;20036;-69
2023/05/28 05:21:53;;;;;;;12.93;6.68;;;16.50;65.60;;;;;;5029889;28;20064;-69
2023/05/28 05:24:19;;;;;;;12.85;6.03;;;16.50;65.50;;;;;;5009198;28;20492;-69
2023/05/28 05:26:45;;;;;;;18.27;6.65;;;16.50;65.40;;;;;;5029610;28;20033;-69
2023/05/28 05:29:11;;;;;;;16.48;6.68;;;16.60;65.40;;;;;;5030259;28;20087;-69
2023/05/28 05:31:36;;;;;;;13.38;6.68;;;16.60;65.30;;;;;;5031141;28;20018;-69
2023/05/28 05:34:04;;;;;;;15.13;6.28;;;16.70;65.30;;;;;;5023953;28;20022;-69
2023/05/28 05:36:48;;;;;;;12.93;6.57;;;16.70;65.20;;;;;;5024456;28;20040;-69
2023/05/28 05:39:42;;;;;;;10.23;6.07;;;16.70;65.10;;;;;;5018761;28;20033;-69
2023/05/28 05:42:26;;;;;;;16.73;6.13;;;16.80;65.10;;;;;;5023969;28;20056;-69
2023/05/28 05:44:54;;;;;;;16.55;6.47;;;16.80;64.90;;;;;;5024832;28;20026;-70
2023/05/28 05:47:20;;;;;;;12.93;6.32;;;16.80;64.80;;;;;;5026749;28;20045;-69
2023/05/28 05:49:46;;;;;;;15.02;6.75;;;17.00;64.80;;;;;;5024607;28;20056;-69
2023/05/28 05:52:12;;;;;;;14.68;6.55;;;17.10;64.60;;;;;;5022158;28;20546;-68
2023/05/28 05:54:40;;;;;;;14.52;6.97;;;17.10;64.20;;;;;;5025657;28;20026;-70
2023/05/28 05:57:07;;;;;;;12.82;5.82;;;17.10;63.90;;;;;;5006263;28;20022;-69
2023/05/28 05:59:33;;;;;;;16.00;6.90;;;17.20;63.90;;;;;;5023327;28;20033;-69
2023/05/28 06:01:58;;;;;;;12.02;5.72;;;17.20;63.80;;;;;;5009357;28;20404;-69
2023/05/28 06:04:31;;;;;;;13.90;6.43;;;17.20;63.80;;;;;;5025516;28;20025;-69
2023/05/28 06:07:30;;;;;;;12.30;6.03;;;17.30;63.80;;;;;;5004101;28;20038;-68
2023/05/28 06:10:17;;;;;;;14.48;5.60;;;17.30;63.60;;;;;;5028367;28;20447;-68
2023/05/28 06:12:43;;;;;;;11.60;5.40;;;17.50;63.40;;;;;;5028610;28;20025;-68
2023/05/28 06:15:09;;;;;;;15.45;6.18;;;17.50;63.20;;;;;;5033223;28;20087;-68
2023/05/28 06:17:35;;;;;;;15.13;5.97;;;17.60;63.10;;;;;;5033202;28;20018;-68
2023/05/28 06:20:01;;;;;;;15.30;5.70;;;17.80;63.00;;;;;;5033834;28;20461;-68
2023/05/28 06:22:29;;;;;;;12.32;5.65;;;17.90;62.90;;;;;;5035438;28;20045;-68
2023/05/28 06:24:56;;;;;;;12.13;5.30;;;18.00;62.70;;;;;;5012335;28;20071;-68
2023/05/28 06:27:22;;;;;;;14.05;5.80;;;18.00;62.50;;;;;;5035332;28;20036;-68
2023/05/28 06:29:48;;;;;;;14.43;5.53;;;18.00;62.60;;;;;;5008559;28;20026;-68
2023/05/28 06:32:14;;;;;;;15.50;6.55;;;18.10;62.80;;;;;;5032054;28;20028;-68
2023/05/28 06:34:42;;;;;;;14.18;5.85;;;18.10;62.70;;;;;;5032813;28;20030;-68
2023/05/28 06:37:08;;;;;;;12.38;6.13;;;18.00;62.60;;;;;;5034573;28;20407;-68
2023/05/28 06:39:34;;;;;;;12.93;5.55;;;18.00;62.80;;;;;;5015740;28;20117;-68
2023/05/28 06:42:02;;;;;;;13.95;6.30;;;18.00;63.00;;;;;;5033847;28;20056;-68
2023/05/28 06:44:56;;;;;;;14.07;6.20;;;18.00;63.10;;;;;;5032742;28;20033;-68
2023/05/28 06:47:22;;;;;;;12.98;5.78;;;18.00;63.10;;;;;;5032469;28;20610;-68
2023/05/28 06:49:48;;;;;;;16.38;6.47;;;18.00;63.20;;;;;;5032734;28;20109;-68
2023/05/28 06:52:13;;;;;;;15.10;6.55;;;17.90;63.30;;;;;;5033451;28;20103;-68
2023/05/28 06:54:39;;;;;;;13.27;6.22;;;17.90;63.30;;;;;;5033566;28;20017;-68
2023/05/28 06:57:06;;;;;;;13.52;5.80;;;17.90;63.40;;;;;;5033792;28;20045;-68
2023/05/28 06:59:47;;;;;;;13.82;6.30;;;17.90;63.40;;;;;;5033484;28;20339;-68
2023/05/28 07:02:38;;;;;;;13.88;6.35;;;17.90;63.20;;;;;;5016572;28;20026;-68
2023/05/28 07:05:35;;;;;;;10.70;5.70;;;18.00;63.10;;;;;;5024912;28;20120;-68
2023/05/28 07:08:02;;;;;;;14.43;5.43;;;18.40;62.70;;;;;;5027761;28;20379;-68
2023/05/28 07:10:27;;;;;;;12.93;5.57;;;18.80;61.90;;;;;;5011699;28;20028;-69
2023/05/28 07:12:53;;;;;;;13.38;5.65;;;19.20;61.30;;;;;;5015250;28;20372;-69
2023/05/28 07:15:21;;;;;;;12.88;5.63;;;19.50;60.60;;;;;;5021535;28;20432;-68
2023/05/28 07:17:47;;;;;;;12.93;5.15;;;19.80;59.90;;;;;;5025508;28;20029;-68
2023/05/28 07:20:13;;;;;;;11.30;5.28;;;20.00;59.70;;;;;;5028671;28;20026;-68
2023/05/28 07:22:49;;;;;;;12.38;5.07;;;20.20;59.20;;;;;;5013456;28;20022;-69
2023/05/28 07:25:16;;;;;;;10.07;4.95;;;20.50;58.50;;;;;;5031963;28;20033;-68
2023/05/28 07:27:42;;;;;;;13.25;5.85;;;20.70;58.50;;;;;;5022347;28;20048;-70
2023/05/28 07:30:08;;;;;;;11.98;5.03;;;21.00;57.30;;;;;;5023079;28;20451;-69
2023/05/28 07:32:34;;;;;;;9.88;4.40;;;21.20;56.70;;;;;;5030355;28;20022;-69
2023/05/28 07:35:01;;;;;;;12.90;4.78;;;21.40;56.30;;;;;;5028636;28;20532;-68
2023/05/28 07:37:28;;;;;;;12.32;4.43;;;21.60;55.80;;;;;;5030216;28;20029;-70
2023/05/28 07:39:54;;;;;;;10.02;4.13;;;21.80;55.40;;;;;;5028595;28;20102;-71
2023/05/28 07:42:20;;;;;;;10.15;4.53;;;22.00;54.90;;;;;;5026522;28;20022;-68
2023/05/28 07:44:55;;;;;;;9.18;3.80;;;22.10;54.30;;;;;;5029151;28;20052;-68
2023/05/28 07:47:20;;;;;;;11.07;4.72;;;22.20;53.70;;;;;;5015417;28;20442;-68
2023/05/28 07:50:13;;;;;;;11.95;4.00;;;22.40;53.30;;;;;;5030307;28;20112;-69
2023/05/28 07:53:01;;;;;;;9.38;3.58;;;22.60;52.90;;;;;;5030523;28;20060;-69
2023/05/28 07:55:27;;;;;;;11.63;4.20;;;22.80;52.30;;;;;;5015273;28;20032;-69
2023/05/28 07:57:54;;;;;;;9.07;3.72;;;22.90;51.90;;;;;;5028415;28;20022;-70
2023/05/28 08:00:21;;;;;;;10.32;3.97;;;23.10;51.50;;;;;;5010165;28;20029;-68
2023/05/28 08:02:52;;;;;;;8.18;3.15;;;23.10;50.90;;;;;;5027569;28;20053;-69
2023/05/28 08:05:21;;;;;;;8.88;3.95;;;23.30;50.60;;;;;;5010167;28;20029;-69
2023/05/28 08:07:46;;;;;;;9.13;3.67;;;23.40;50.10;;;;;;5025006;28;20302;-69
2023/05/28 08:10:13;;;;;;;9.35;3.42;;;23.40;49.90;;;;;;5020161;28;20085;-69
2023/05/28 08:12:39;;;;;;;10.20;3.45;;;23.50;49.80;;;;;;5026603;28;20099;-69
2023/05/28 08:15:05;;;;;;;11.07;4.20;;;23.50;49.70;;;;;;5027656;28;20455;-68
2023/05/28 08:17:33;;;;;;;8.63;3.33;;;23.50;50.00;;;;;;5024902;28;20053;-69
2023/05/28 08:20:07;;;;;;;7.93;3.08;;;23.60;49.10;;;;;;5007408;28;20030;-68
2023/05/28 08:22:46;;;;;;;10.43;3.65;;;23.80;48.90;;;;;;5024801;28;20081;-69
2023/05/28 08:25:12;;;;;;;7.82;3.47;;;24.00;48.50;;;;;;5022169;28;20078;-70
2023/05/28 08:27:38;;;;;;;7.47;2.67;;;24.10;48.20;;;;;;5023550;28;20021;-69
2023/05/28 08:30:05;;;;;;;10.15;3.42;;;24.20;47.80;;;;;;5023287;28;20343;-69
2023/05/28 08:32:37;;;;;;;6.93;3.03;;;24.30;47.40;;;;;;5019970;28;20851;-71
2023/05/28 08:35:03;;;;;;;9.13;3.30;;;24.40;47.10;;;;;;5014016;28;20018;-68
2023/05/28 08:37:29;;;;;;;8.15;3.45;;;24.50;46.60;;;;;;5025963;28;20026;-69
2023/05/28 08:40:15;;;;;;;7.13;2.75;;;24.60;46.20;;;;;;5024261;28;20354;-68
2023/05/28 08:42:41;;;;;;;8.70;3.38;;;24.70;46.10;;;;;;5022297;28;20113;-67
2023/05/28 08:45:07;;;;;;;9.43;2.90;;;24.80;46.00;;;;;;5022355;28;20116;-68
2023/05/28 08:47:37;;;;;;;7.78;3.28;;;24.90;45.90;;;;;;5010432;28;20113;-69
2023/05/28 08:50:08;;;;;;;8.35;3.35;;;25.00;45.60;;;;;;5023787;28;20032;-69
2023/05/28 08:52:46;;;;;;;8.57;3.30;;;25.10;45.40;;;;;;5041300;28;20046;-69
2023/05/28 08:55:13;;;;;;;8.77;3.05;;;25.20;45.10;;;;;;5025750;28;20340;-69
2023/05/28 08:57:46;;;;;;;10.32;3.47;;;25.30;45.70;;;;;;5023318;28;20087;-69
2023/05/28 09:00:12;;;;;;;7.55;3.17;;;25.50;44.90;;;;;;5023715;28;20025;-69
2023/05/28 09:03:07;;;;;;;7.43;3.15;;;25.60;44.60;;;;;;5025073;28;20116;-69
2023/05/28 09:05:38;;;;;;;8.55;3.28;;;25.70;44.60;;;;;;5023756;28;20025;-70
2023/05/28 09:08:12;;;;;;;9.23;3.25;;;25.90;44.20;;;;;;5016042;28;20132;-69
2023/05/28 09:10:39;;;;;;;10.25;3.95;;;26.00;43.90;;;;;;5025880;28;20061;-70
2023/05/28 09:13:05;;;;;;;9.13;3.65;;;26.00;43.90;;;;;;5025242;28;20415;-69
2023/05/28 09:15:33;;;;;;;10.60;4.10;;;26.00;43.60;;;;;;5029270;28;20391;-69
2023/05/28 09:18:01;;;;;;;8.48;3.33;;;26.00;43.50;;;;;;5027251;28;20535;-69
2023/05/28 09:20:28;;;;;;;9.75;3.38;;;26.10;43.50;;;;;;5028922;28;20021;-70
2023/05/28 09:22:59;;;;;;;8.43;3.50;;;26.10;43.40;;;;;;5007088;28;20175;-69
2023/05/28 09:25:45;;;;;;;8.30;3.10;;;26.10;43.40;;;;;;5026979;28;20053;-69
2023/05/28 09:28:14;;;;;;;12.07;3.47;;;26.20;43.40;;;;;;5027543;28;20048;-68
2023/05/28 09:30:41;;;;;;;8.27;3.17;;;26.30;43.20;;;;;;5026964;28;20411;-69
2023/05/28 09:33:08;;;;;;;8.18;3.60;;;26.30;43.10;;;;;;5027146;28;20017;-69
2023/05/28 09:35:34;;;;;;;9.80;3.45;;;26.40;42.80;;;;;;5028822;28;20060;-68
2023/05/28 09:38:03;;;;;;;8.38;3.13;;;26.40;42.30;;;;;;5029487;28;20037;-69
2023/05/28 09:40:29;;;;;;;8.60;3.17;;;26.50;42.00;;;;;;5031119;28;20116;-69
2023/05/28 09:42:54;;;;;;;8.57;3.20;;;26.50;41.70;;;;;;5029817;28;20409;-69
2023/05/28 09:45:25;;;;;;;9.77;3.50;;;26.60;41.80;;;;;;5036778;28;20407;-69
2023/05/28 09:47:51;;;;;;;7.72;2.78;;;26.60;41.60;;;;;;5036627;28;20036;-69
2023/05/28 09:50:17;;;;;;;7.97;3.05;;;26.70;41.70;;;;;;5037183;28;20116;-69
2023/05/28 09:52:45;;;;;;;7.97;3.70;;;26.80;41.70;;;;;;5034862;28;20080;-69
2023/05/28 09:55:18;;;;;;;7.97;3.10;;;26.80;41.20;;;;;;5033922;28;20017;-70
2023/05/28 09:57:53;;;;;;;7.30;2.80;;;26.80;41.00;;;;;;5035614;28;20021;-69
2023/05/28 10:00:26;;;;;;;8.00;3.03;;;26.70;41.30;;;;;;5035793;28;20029;-69
2023/05/28 10:03:02;;;;;;;8.25;3.50;;;26.70;41.60;;;;;;5035418;28;20064;-69
2023/05/28 10:05:33;;;;;;;8.57;3.47;;;26.70;41.30;;;;;;5035785;28;20427;-69
2023/05/28 10:07:59;;;;;;;;;;;26.70;41.20;;;;;;5036706;28;20366;-69
2023/05/28 10:10:28;;;;;;;8.23;3.00;;;26.60;41.60;;;;;;5036200;28;19912;-69
2023/05/28 10:12:56;;;;;;;8.90;3.28;;;26.40;42.00;;;;;;5026380;28;20037;-69
2023/05/28 10:15:22;;;;;;;7.95;3.20;;;26.20;42.40;;;;;;5035382;28;20093;-69
2023/05/28 10:17:50;;;;;;;10.45;3.75;;;26.10;42.50;;;;;;5036382;28;20033;-69
2023/05/28 10:20:18;;;;;;;10.43;3.65;;;26.00;42.60;;;;;;5018302;28;20033;-69
2023/05/28 10:22:44;;;;;;;8.88;3.70;;;25.90;43.30;;;;;;5031303;28;20037;-69
2023/05/28 10:25:10;;;;;;;8.60;3.88;;;25.80;42.80;;;;;;5035281;28;20025;-70
2023/05/28 10:27:42;;;;;;;8.38;3.42;;;25.70;43.00;;;;;;5036304;28;20025;-69
2023/05/28 10:30:09;;;;;;;9.95;3.72;;;25.60;43.40;;;;;;5036318;28;20081;-69
2023/05/28 10:32:41;;;;;;;8.88;3.13;;;25.60;43.80;;;;;;5032871;28;20064;-69
2023/05/28 10:35:11;;;;;;;8.63;3.45;;;25.70;43.80;;;;;;5018536;28;20029;-69
2023/05/28 10:37:37;;;;;;;10.55;3.88;;;25.80;43.80;;;;;;5036097;28;20028;-69
2023/05/28 10:40:03;;;;;;;7.50;3.70;;;26.00;43.80;;;;;;5031493;28;20359;-70
2023/05/28 10:42:29;;;;;;;9.40;3.97;;;26.20;43.70;;;;;;5033303;28;20029;-69
2023/05/28 10:45:09;;;;;;;10.60;3.92;;;26.30;43.60;;;;;;5030796;28;20335;-69
2023/05/28 10:47:54;;;;;;;9.93;3.92;;;26.40;43.10;;;;;;5031446;28;20036;-68
2023/05/28 10:50:20;;;;;;;8.70;3.47;;;26.50;42.90;;;;;;5024536;28;20370;-71
2023/05/28 10:53:08;;;;;;;8.30;3.47;;;26.50;43.00;;;;;;5030743;28;20493;-69
2023/05/28 10:55:51;;;;;;;10.15;4.13;;;26.60;42.80;;;;;;5028060;28;20542;-68
2023/05/28 10:58:36;;;;;;;10.77;3.75;;;26.50;42.50;;;;;;5033703;28;20480;-69
2023/05/28 11:01:20;;;;;;;10.45;3.33;;;26.50;42.90;;;;;;5048283;28;20427;-69
2023/05/28 11:03:55;;;;;;;8.95;3.30;;;26.40;43.00;;;;;;5029436;28;20084;-68
2023/05/28 11:06:24;;;;;;;9.43;3.80;;;26.40;43.10;;;;;;5030599;28;20075;-68
2023/05/28 11:08:50;;;;;;;9.27;3.60;;;26.40;43.00;;;;;;5033607;28;20113;-69
2023/05/28 11:11:17;;;;;;;9.48;3.13;;;26.30;43.10;;;;;;5030844;28;20120;-68
2023/05/28 11:13:47;;;;;;;10.35;4.10;;;26.30;43.10;;;;;;5027211;28;20100;-68
2023/05/28 11:16:16;;;;;;;8.55;3.60;;;26.30;43.10;;;;;;5021546;28;20044;-69
2023/05/28 11:19:01;;;;;;;11.30;4.07;;;26.30;43.00;;;;;;5027284;28;20021;-69
2023/05/28 11:21:27;;;;;;;7.95;3.05;;;26.30;43.00;;;;;;5024745;28;20051;-69
2023/05/28 11:24:04;;;;;;;10.40;4.07;;;26.30;43.20;;;;;;5023738;28;20037;-67
2023/05/28 11:26:31;;;;;;;8.82;3.17;;;26.30;43.30;;;;;;5024702;28;20049;-68
2023/05/28 11:28:59;;;;;;;8.02;3.25;;;26.30;43.40;;;;;;5026820;28;20480;-68
2023/05/28 11:31:24;;;;;;;9.45;3.60;;;26.40;43.40;;;;;;5023294;28;20030;-76
2023/05/28 11:33:51;;;;;;;10.13;3.35;;;26.40;43.20;;;;;;5025494;28;20040;-73
2023/05/28 11:36:18;;;;;;;10.93;3.90;;;26.50;43.10;;;;;;5026514;28;20335;-69
2023/05/28 11:38:44;;;;;;;8.90;3.30;;;26.50;42.80;;;;;;5036549;28;20138;-70
2023/05/28 11:41:10;;;;;;;8.98;3.28;;;26.50;42.60;;;;;;5021811;28;20056;-71
2023/05/28 11:43:35;;;;;;;9.25;3.30;;;26.60;42.40;;;;;;5024137;28;20048;-71
2023/05/28 11:46:01;;;;;;;9.40;3.30;;;26.60;42.40;;;;;;5024166;28;20085;-72
2023/05/28 11:48:27;;;;;;;6.65;2.75;;;26.60;42.40;;;;;;5026375;28;20442;-71
2023/05/28 11:51:00;;;;;;;6.80;2.90;;;26.60;42.20;;;;;;5025569;28;20025;-70
2023/05/28 11:53:43;;;;;;;6.35;2.85;;;26.60;41.80;;;;;;5023137;28;20029;-70
2023/05/28 11:56:10;;;;;;;8.90;3.47;;;26.70;41.30;;;;;;5024506;28;20052;-70
2023/05/28 11:58:40;;;;;;;8.45;3.42;;;26.70;41.30;;;;;;5007654;28;20060;-71
2023/05/28 12:01:06;;;;;;;8.18;3.15;;;26.60;41.30;;;;;;5024863;28;20044;-71
2023/05/28 12:03:32;;;;;;;9.30;3.70;;;26.60;41.30;;;;;;5028840;28;20354;-71
2023/05/28 12:05:58;;;;;;;8.65;3.10;;;26.60;41.20;;;;;;5019791;28;20079;-71
2023/05/28 12:08:27;;;;;;;7.43;3.08;;;26.50;41.30;;;;;;5026082;28;20127;-71
2023/05/28 12:10:58;;;;;;;8.27;3.03;;;26.40;41.20;;;;;;5026307;28;20025;-71
2023/05/28 12:13:31;;;;;;;9.63;3.65;;;26.30;41.20;;;;;;5026311;28;20409;-71
2023/05/28 12:16:10;;;;;;;7.68;3.40;;;26.30;41.20;;;;;;5025054;28;20029;-71
2023/05/28 12:18:43;;;;;;;7.43;3.50;;;26.20;41.40;;;;;;5025494;28;20038;-72
2023/05/28 12:21:20;;;;;;;8.20;3.25;;;26.10;41.30;;;;;;5027004;28;20021;-71
2023/05/28 12:23:46;;;;;;;9.10;3.65;;;26.00;41.60;;;;;;5024140;28;20124;-72
2023/05/28 12:26:13;;;;;;;7.38;3.17;;;26.00;41.60;;;;;;5025203;28;20401;-72
2023/05/28 12:28:40;;;;;;;9.85;3.55;;;26.00;42.20;;;;;;5015984;28;20044;-72
2023/05/28 12:31:07;;;;;;;8.45;3.63;;;26.00;42.00;;;;;;5023632;28;20029;-71
2023/05/28 12:33:33;;;;;;;9.15;3.60;;;25.90;42.00;;;;;;5022475;28;20157;-71
2023/05/28 12:35:59;;;;;;;8.93;3.88;;;25.90;42.20;;;;;;5026638;28;20053;-72
2023/05/28 12:38:26;;;;;;;8.77;3.88;;;25.90;42.20;;;;;;5023483;28;20428;-71
2023/05/28 12:40:52;;;;;;;8.60;3.50;;;25.80;42.20;;;;;;5024730;28;20071;-72
2023/05/28 12:43:18;;;;;;;6.95;3.00;;;25.80;42.20;;;;;;5025911;28;20690;-71
2023/05/28 12:45:44;;;;;;;9.93;3.55;;;25.70;42.20;;;;;;5023674;28;20940;-71
2023/05/28 12:48:10;;;;;;;8.75;3.40;;;25.70;42.10;;;;;;5011059;28;20030;-71
2023/05/28 12:50:36;;;;;;;10.95;3.40;;;25.60;42.00;;;;;;5028920;28;20028;-71